Grand Marais, Minnesota
Current Conditions -  °F | °C
As of 3:33 AM on Friday 28 Nov 2014 (Local Time) from KCKC Reporting Station
Overcast Overcast  
Wind Chill:   Ceiling: 1400
Heat Index:   Visibility: 10mi
Dew Point: -6°   Wind: 3mph
Humidity: 66%   Direction: 270°W
Pressure: 30.1"   Gusts: NA
Location:  47.75°N, 90.33°W
Report Text: KCKC 280933Z AUTO 27003KT 10SM BKN014 OVC090 M16/M21 A3010 RMK AO2
Loading
Personal Weather Stations






























Interactive Weather Map New forecast layout! Learn more

10-Day Weather Forecast

Advertisements
Track Severe Weather on mobile